Flight NumberIRM4592 Date06.05.2018
Departure AirportOIKB Arrival AirportOIII
Departure Time20.41Arrival Time22.07
Pilot In CommandSaeed TabaTabaei Block Time1.40 Hours
Pilot Rating100 % AircraftEP-MNK [ A300-600 ]


Distance571.00 Nm. Passengers280
Fuel Used8,626 Kg. Cargo12635 Kg
Expense Details Income Details
Fuel Cost7,744 v$Ticket Sales49,560 v$
Pilot Salary5,415 v$ Cargo income21,624.00 v$
Crew Salary1,400 v$ Bonus12,895 v$
Gross Profit71,956 v$ ( 719,560 v$ )

Client Versionv2.2.0.rc3 Max Simrate1
Flight Critique Pilot CommentsOIII 062000Z 18004KT 9999 FEW100 19/06 Q1017 A3003// RADA2P ILS RWY 29L